Terminal Aerodrome Forecast
Issued by NWS Mobile, AL

Home | Current Version | Previous Version | Text Only | Print | Product List | Glossary On
Versions: 1 2 3 4 5 6 7 8 9 10 11 12 13 14 15
000
FTUS44 KMOB 031726
TAFPNS
TAF
KPNS 031726Z 0318/0418 08009G18KT P6SM VCSH SCT060 BKN100
     FM040300 07009KT P6SM OVC050
      TEMPO 0406/0410 P6SM -SHRA OVC050
     FM041000 12012KT P6SM OVC025
     FM041200 13012KT P6SM -SHRA VCTS OVC015CB=

USA.gov is the U.S. government's official web portal to all federal, state and local government web resources and services.